createdAt,value
2018-04-09T00:00:59.916Z,5.80
2018-04-09T00:02:00.092Z,8.90
2018-04-09T00:03:00.249Z,5.80
2018-04-09T00:04:00.412Z,5.90
2018-04-09T00:05:00.577Z,8.00
2018-04-09T00:06:00.744Z,7.30
2018-04-09T00:07:00.919Z,6.40
2018-04-09T00:08:01.068Z,6.70
2018-04-09T00:10:43.340Z,6.90
2018-04-09T00:11:43.503Z,6.40
2018-04-09T00:12:43.913Z,7.20
2018-04-09T00:13:43.773Z,7.40
2018-04-09T00:14:43.938Z,8.60
2018-04-09T00:15:44.100Z,5.70
2018-04-09T00:16:44.270Z,8.00
2018-04-09T00:17:44.424Z,5.90
2018-04-09T00:18:44.626Z,7.90
2018-04-09T00:19:44.790Z,6.80
2018-04-09T00:20:44.967Z,6.20
2018-04-09T00:21:45.123Z,6.50
2018-04-09T00:22:45.288Z,7.20
2018-04-09T00:23:45.444Z,7.20
2018-04-09T00:24:45.614Z,5.80
2018-04-09T00:27:28.167Z,5.90
2018-04-09T00:28:28.360Z,5.60
2018-04-09T00:29:28.511Z,6.50
2018-04-09T00:30:28.673Z,6.70
2018-04-09T00:31:28.845Z,6.20
2018-04-09T00:32:29.011Z,5.70
2018-04-09T00:33:29.178Z,6.80
2018-04-09T00:34:29.341Z,5.20
2018-04-09T00:35:29.493Z,7.70
2018-04-09T00:36:29.662Z,5.40
2018-04-09T00:37:29.835Z,7.10
2018-04-09T00:38:29.994Z,6.80
2018-04-09T00:39:30.171Z,6.40
2018-04-09T00:40:30.334Z,7.40
2018-04-09T00:41:30.515Z,7.50
2018-04-09T00:44:12.750Z,5.30
2018-04-09T00:45:12.917Z,7.30
2018-04-09T00:46:13.096Z,5.60
2018-04-09T00:47:13.247Z,5.20
2018-04-09T00:48:13.422Z,6.00
2018-04-09T00:49:13.576Z,5.70
2018-04-09T00:50:13.731Z,5.60
2018-04-09T00:51:13.898Z,6.70
2018-04-09T00:52:14.053Z,6.80
2018-04-09T00:53:14.226Z,8.30
2018-04-09T00:54:14.398Z,5.20
2018-04-09T00:55:14.560Z,6.40
2018-04-09T00:56:14.721Z,6.50
2018-04-09T00:57:14.884Z,6.00
2018-04-09T00:58:15.050Z,5.20
2018-04-09T01:00:57.608Z,7.00
2018-04-09T01:01:57.766Z,6.60
2018-04-09T01:02:57.939Z,7.20
2018-04-09T01:03:58.103Z,6.30
2018-04-09T01:04:58.268Z,5.80
2018-04-09T01:05:58.431Z,6.30
2018-04-09T01:06:58.593Z,6.40
2018-04-09T01:07:58.743Z,7.80
2018-04-09T01:08:58.910Z,6.40
2018-04-09T01:09:59.078Z,7.30
2018-04-09T01:12:41.361Z,6.30
2018-04-09T01:13:41.497Z,5.30
2018-04-09T01:14:41.676Z,6.70
2018-04-09T01:15:41.829Z,6.10
2018-04-09T01:16:42.006Z,6.80
2018-04-09T01:17:42.166Z,6.30
2018-04-09T01:18:42.324Z,6.40
2018-04-09T01:19:42.494Z,6.30
2018-04-09T01:20:42.655Z,6.40
2018-04-09T01:21:42.817Z,7.10
2018-04-09T01:22:42.986Z,6.70
2018-04-09T01:23:43.207Z,6.00
2018-04-09T01:24:43.292Z,6.40
2018-04-09T01:25:43.457Z,7.70
2018-04-09T01:26:43.647Z,8.70
2018-04-09T01:29:25.912Z,6.70
2018-04-09T01:30:26.093Z,5.70
2018-04-09T01:31:26.232Z,6.40
2018-04-09T01:32:26.387Z,7.00
2018-04-09T01:33:26.584Z,6.10
2018-04-09T01:34:26.723Z,6.70
2018-04-09T01:35:26.875Z,7.50
2018-04-09T01:36:27.045Z,7.00
2018-04-09T01:37:27.212Z,5.60
2018-04-09T01:38:27.383Z,8.20
2018-04-09T01:39:27.545Z,6.40
2018-04-09T01:40:27.719Z,8.10
2018-04-09T01:41:27.885Z,6.90
2018-04-09T01:42:28.043Z,5.60
2018-04-09T01:43:28.213Z,6.30
2018-04-09T01:46:10.474Z,8.80
2018-04-09T01:47:10.642Z,8.80
2018-04-09T01:48:10.802Z,6.20
2018-04-09T01:49:10.967Z,7.20
2018-04-09T01:50:11.130Z,5.90
2018-04-09T01:51:11.296Z,7.30
2018-04-09T01:52:11.472Z,6.40
2018-04-09T01:53:11.603Z,7.20
2018-04-09T01:54:11.762Z,7.70
2018-04-09T01:55:11.932Z,7.40
2018-04-09T01:57:54.288Z,7.00
2018-04-09T01:58:54.312Z,5.90
2018-04-09T01:59:54.485Z,7.00
2018-04-09T02:00:54.653Z,6.50
2018-04-09T02:01:54.817Z,8.00
2018-04-09T02:02:54.988Z,6.80
2018-04-09T02:03:55.159Z,6.70
2018-04-09T02:04:55.401Z,7.80
2018-04-09T02:05:55.451Z,6.40
2018-04-09T02:06:55.808Z,9.20
2018-04-09T02:07:55.731Z,6.30
2018-04-09T02:08:55.886Z,6.50
2018-04-09T02:09:56.090Z,7.10
2018-04-09T02:10:56.229Z,6.20
2018-04-09T02:11:56.411Z,6.00
2018-04-09T02:16:06.989Z,6.80
2018-04-09T02:17:07.155Z,7.50
2018-04-09T02:18:07.315Z,7.40
2018-04-09T02:19:07.492Z,6.40
2018-04-09T02:20:07.634Z,6.40
2018-04-09T02:21:07.801Z,5.70
2018-04-09T02:22:07.962Z,6.40
2018-04-09T02:23:08.131Z,6.00
2018-04-09T02:24:08.308Z,6.90
2018-04-09T02:25:09.284Z,7.20
2018-04-09T02:26:08.577Z,5.80
2018-04-09T02:27:08.740Z,5.70
2018-04-09T02:28:08.904Z,6.30
2018-04-09T02:29:09.067Z,7.60
2018-04-09T02:30:09.268Z,6.10
2018-04-09T02:32:51.575Z,7.90
2018-04-09T02:33:51.742Z,10.00
2018-04-09T02:34:51.898Z,11.00
2018-04-09T02:35:52.072Z,8.20
2018-04-09T02:36:52.239Z,8.00
2018-04-09T02:37:52.394Z,8.10
2018-04-09T02:38:52.540Z,8.90
2018-04-09T02:39:52.720Z,10.00
2018-04-09T02:40:52.883Z,8.60
2018-04-09T02:41:53.047Z,8.20
2018-04-09T02:42:53.210Z,9.00
2018-04-09T02:43:53.358Z,7.80
2018-04-09T02:44:53.567Z,9.20
2018-04-09T02:45:53.746Z,8.60
2018-04-09T02:46:53.887Z,11.90
2018-04-09T02:52:34.871Z,8.90
2018-04-09T02:53:34.675Z,7.40
2018-04-09T02:54:34.899Z,8.60
2018-04-09T02:55:34.999Z,8.00
2018-04-09T02:56:35.177Z,7.60
2018-04-09T02:57:35.583Z,8.60
2018-04-09T02:58:35.622Z,6.90
2018-04-09T02:59:35.672Z,7.10
2018-04-09T03:00:35.871Z,9.20
2018-04-09T03:01:36.000Z,8.40
2018-04-09T03:02:36.165Z,6.70
2018-04-09T03:03:36.325Z,6.80
2018-04-09T03:04:36.495Z,6.70
2018-04-09T03:05:36.653Z,7.30
2018-04-09T03:06:36.807Z,8.30
2018-04-09T03:10:47.400Z,8.50
2018-04-09T03:11:47.538Z,8.50
2018-04-09T03:12:47.700Z,7.10
2018-04-09T03:13:47.873Z,6.60
2018-04-09T03:14:48.028Z,8.40
2018-04-09T03:15:48.195Z,8.60
2018-04-09T03:16:48.356Z,7.20
2018-04-09T03:17:48.570Z,8.30
2018-04-09T03:18:48.678Z,9.00
2018-04-09T03:19:48.856Z,10.60
2018-04-09T03:20:49.025Z,7.10
2018-04-09T03:21:49.185Z,7.40
2018-04-09T03:22:49.389Z,8.00
2018-04-09T03:23:49.514Z,7.20
2018-04-09T03:24:49.667Z,8.30
2018-04-09T03:27:32.222Z,8.30
2018-04-09T03:28:32.372Z,6.60
2018-04-09T03:29:32.621Z,7.90
2018-04-09T03:30:32.722Z,6.90
2018-04-09T03:31:32.886Z,7.30
2018-04-09T03:32:33.044Z,7.20
2018-04-09T03:33:33.211Z,8.10
2018-04-09T03:34:33.503Z,7.30
2018-04-09T03:35:33.559Z,9.90
2018-04-09T03:36:33.711Z,6.10
2018-04-09T03:37:33.876Z,7.70
2018-04-09T03:38:34.037Z,7.20
2018-04-09T03:39:34.215Z,6.10
2018-04-09T03:40:34.370Z,6.20
2018-04-09T03:41:34.546Z,6.40
2018-04-09T03:44:17.104Z,6.60
2018-04-09T03:45:17.267Z,6.20
2018-04-09T03:46:17.432Z,6.20
2018-04-09T03:47:17.591Z,6.90
2018-04-09T03:48:17.752Z,9.00
2018-04-09T03:49:17.916Z,8.00
2018-04-09T03:50:18.076Z,8.00
2018-04-09T03:51:18.244Z,7.80
2018-04-09T03:52:18.409Z,6.90
2018-04-09T03:53:18.561Z,7.10
2018-04-09T03:54:18.726Z,7.20
2018-04-09T03:55:18.893Z,7.30
2018-04-09T03:56:19.062Z,8.00
2018-04-09T03:57:19.217Z,7.30
2018-04-09T03:58:19.438Z,6.80
2018-04-09T04:01:01.925Z,7.70
2018-04-09T04:02:02.081Z,6.90
2018-04-09T04:03:02.242Z,6.20
2018-04-09T04:04:02.405Z,9.60
2018-04-09T04:05:02.619Z,7.80
2018-04-09T04:06:02.816Z,8.00
2018-04-09T04:07:02.934Z,7.50
2018-04-09T04:08:03.135Z,6.90
2018-04-09T04:09:03.347Z,7.10
2018-04-09T04:10:03.475Z,6.60
2018-04-09T04:11:03.658Z,6.60
2018-04-09T04:12:03.889Z,7.50
2018-04-09T04:13:04.036Z,7.10
2018-04-09T04:14:04.159Z,7.10
2018-04-09T04:15:04.323Z,8.50
2018-04-09T04:17:46.906Z,9.20
2018-04-09T04:18:47.049Z,7.30
2018-04-09T04:19:47.212Z,8.30
2018-04-09T04:20:47.364Z,8.40
2018-04-09T04:21:47.537Z,7.90
2018-04-09T04:22:47.705Z,6.90
2018-04-09T04:23:47.872Z,7.20
2018-04-09T04:24:48.024Z,7.00
2018-04-09T04:25:48.205Z,7.50
2018-04-09T04:26:48.409Z,7.80
2018-04-09T04:27:48.526Z,7.30
2018-04-09T04:28:48.684Z,7.10
2018-04-09T04:29:48.847Z,7.80
2018-04-09T04:30:49.013Z,6.80
2018-04-09T04:31:49.168Z,10.10
2018-04-09T04:35:49.747Z,8.00
2018-04-09T04:36:49.911Z,8.80
2018-04-09T04:37:50.073Z,7.30
2018-04-09T04:38:50.237Z,7.30
2018-04-09T04:39:50.401Z,7.20
2018-04-09T04:40:50.566Z,7.50
2018-04-09T04:41:50.729Z,9.20
2018-04-09T04:42:50.892Z,7.50
2018-04-09T04:43:51.054Z,10.50
2018-04-09T04:44:51.216Z,7.60
2018-04-09T04:45:51.378Z,8.60
2018-04-09T04:46:51.541Z,7.70
2018-04-09T04:47:51.712Z,7.80
2018-04-09T04:48:51.875Z,7.80
2018-04-09T04:49:52.039Z,8.90
2018-04-09T04:52:41.891Z,6.80
2018-04-09T04:53:34.416Z,7.20
2018-04-09T04:54:34.598Z,8.30
2018-04-09T04:55:34.765Z,9.00
2018-04-09T04:56:34.933Z,7.60
2018-04-09T04:57:35.853Z,7.00
2018-04-09T04:58:35.270Z,6.90
2018-04-09T04:59:35.432Z,7.60
2018-04-09T05:00:35.608Z,9.10
2018-04-09T05:01:35.763Z,7.80
2018-04-09T05:02:36.873Z,8.50
2018-04-09T05:05:18.675Z,8.00
2018-04-09T05:06:18.333Z,6.70
2018-04-09T05:07:18.506Z,8.50
2018-04-09T05:08:18.719Z,7.60
2018-04-09T05:09:18.845Z,8.40
2018-04-09T05:10:19.009Z,7.50
2018-04-09T05:11:19.168Z,7.90
2018-04-09T05:12:19.344Z,8.10
2018-04-09T05:13:19.511Z,6.80
2018-04-09T05:14:19.660Z,7.60
2018-04-09T05:15:19.824Z,8.30
2018-04-09T05:16:19.987Z,7.40
2018-04-09T05:17:20.184Z,7.70
2018-04-09T05:18:20.319Z,8.20
2018-04-09T05:19:20.507Z,9.80
2018-04-09T05:22:02.987Z,9.90
2018-04-09T05:23:03.411Z,6.70
2018-04-09T05:24:03.358Z,24.50
2018-04-09T05:25:03.534Z,8.50
2018-04-09T05:26:03.676Z,9.80
2018-04-09T05:27:03.871Z,8.80
2018-04-09T05:28:04.004Z,9.10
2018-04-09T05:29:04.169Z,8.40
2018-04-09T05:30:04.328Z,12.10
2018-04-09T05:31:04.513Z,8.60
2018-04-09T05:32:04.718Z,9.30
2018-04-09T05:33:04.853Z,9.90
2018-04-09T05:34:04.993Z,8.10
2018-04-09T05:35:05.149Z,8.10
2018-04-09T05:36:05.300Z,7.60
2018-04-09T05:38:47.617Z,8.80
2018-04-09T05:39:47.771Z,9.70
2018-04-09T05:40:47.936Z,10.20
2018-04-09T05:41:48.101Z,8.60
2018-04-09T05:42:48.277Z,9.50
2018-04-09T05:43:48.434Z,9.40
2018-04-09T05:44:48.608Z,12.50
2018-04-09T05:45:48.764Z,10.90
2018-04-09T05:46:48.922Z,7.50
2018-04-09T05:47:49.085Z,8.00
2018-04-09T05:50:31.649Z,8.40
2018-04-09T05:51:31.806Z,9.40
2018-04-09T05:52:31.978Z,9.10
2018-04-09T05:53:32.125Z,8.00
2018-04-09T05:54:32.292Z,8.60
2018-04-09T05:55:32.467Z,9.40
2018-04-09T05:56:32.634Z,7.70
2018-04-09T05:57:32.795Z,10.90
2018-04-09T05:58:32.960Z,8.40
2018-04-09T05:59:33.122Z,9.60
2018-04-09T06:05:24.119Z,7.60
2018-04-09T06:06:23.907Z,7.80
2018-04-09T06:07:24.184Z,7.70
2018-04-09T06:08:24.239Z,8.60
2018-04-09T06:09:24.411Z,8.80
2018-04-09T06:10:24.562Z,7.80
2018-04-09T06:11:24.744Z,8.10
2018-04-09T06:12:24.979Z,10.70
2018-04-09T06:13:25.019Z,9.00
2018-04-09T06:14:25.187Z,10.50
2018-04-09T06:15:25.359Z,10.00
2018-04-09T06:16:25.752Z,9.00
2018-04-09T06:17:33.293Z,10.60
2018-04-09T06:18:25.829Z,13.20
2018-04-09T06:19:25.991Z,11.80
2018-04-09T06:20:34.110Z,12.50
2018-04-09T06:21:26.355Z,15.80
2018-04-09T06:22:26.467Z,15.50
2018-04-09T06:23:26.636Z,16.80
2018-04-09T06:24:26.798Z,13.10
2018-04-09T06:25:26.958Z,13.60
2018-04-09T06:26:27.129Z,16.40
2018-04-09T06:27:27.287Z,16.50
2018-04-09T06:28:27.458Z,14.90
2018-04-09T06:29:27.624Z,13.30
2018-04-09T06:30:27.784Z,14.90
2018-04-09T06:31:28.222Z,14.90
2018-04-09T06:32:28.151Z,13.20
2018-04-09T06:33:28.307Z,15.20
2018-04-09T06:34:28.487Z,14.30
2018-04-09T06:35:28.729Z,13.10
2018-04-09T06:38:11.497Z,9.70
2018-04-09T06:39:11.668Z,11.30
2018-04-09T06:40:11.834Z,12.40
2018-04-09T06:41:11.996Z,13.20
2018-04-09T06:42:12.167Z,11.00
2018-04-09T06:43:12.331Z,11.00
2018-04-09T06:44:12.490Z,11.40
2018-04-09T06:45:12.657Z,10.80
2018-04-09T06:46:12.823Z,11.20
2018-04-09T06:47:12.988Z,11.10
2018-04-09T06:48:13.152Z,11.00
2018-04-09T06:49:21.268Z,12.50
2018-04-09T06:50:13.416Z,12.40
2018-04-09T06:51:13.581Z,11.60
2018-04-09T06:52:13.747Z,12.00
2018-04-09T06:53:13.908Z,12.40
2018-04-09T06:54:14.074Z,11.50
2018-04-09T06:55:14.257Z,11.90
2018-04-09T06:56:14.406Z,13.50
2018-04-09T06:57:14.611Z,11.70
2018-04-09T06:58:14.760Z,12.30
2018-04-09T06:59:15.465Z,11.00
2018-04-09T07:00:15.130Z,10.90
2018-04-09T07:01:15.298Z,13.70
2018-04-09T07:02:15.465Z,12.20
2018-04-09T07:03:15.632Z,12.00
2018-04-09T07:04:15.797Z,11.50
2018-04-09T07:06:58.590Z,9.90
2018-04-09T07:07:58.260Z,10.20
2018-04-09T07:08:59.120Z,11.40
2018-04-09T07:09:58.756Z,11.20
2018-04-09T07:10:59.600Z,12.10
2018-04-09T07:11:59.016Z,10.40
2018-04-09T07:12:59.196Z,12.60
2018-04-09T07:13:59.364Z,11.00
2018-04-09T07:14:59.531Z,12.00
2018-04-09T07:15:59.700Z,11.10
2018-04-09T07:16:59.867Z,10.90
2018-04-09T07:18:00.037Z,11.50
2018-04-09T07:19:00.200Z,10.80
2018-04-09T07:20:00.367Z,11.20
2018-04-09T07:21:00.537Z,12.00
2018-04-09T07:23:43.097Z,10.70
2018-04-09T07:24:43.267Z,11.70
2018-04-09T07:25:43.435Z,11.50
2018-04-09T07:26:43.605Z,12.80
2018-04-09T07:27:43.778Z,11.10
2018-04-09T07:28:43.946Z,12.80
2018-04-09T07:29:52.085Z,12.20
2018-04-09T07:30:44.282Z,11.30
2018-04-09T07:31:45.389Z,12.30
2018-04-09T07:32:44.664Z,15.80
2018-04-09T07:33:44.845Z,13.90
2018-04-09T07:34:53.064Z,16.70
2018-04-09T07:35:45.198Z,13.50
2018-04-09T07:36:45.364Z,14.50
2018-04-09T07:37:45.534Z,13.60
2018-04-09T07:38:45.711Z,13.40
2018-04-09T07:39:45.876Z,11.90
2018-04-09T07:40:46.045Z,12.70
2018-04-09T07:41:46.218Z,15.00
2018-04-09T07:42:46.390Z,12.90
2018-04-09T07:43:46.568Z,11.70
2018-04-09T07:44:46.733Z,15.10
2018-04-09T07:47:29.025Z,14.60
2018-04-09T07:48:29.196Z,14.50
2018-04-09T07:49:29.368Z,13.10
2018-04-09T07:50:29.536Z,13.40
2018-04-09T07:51:29.710Z,12.40
2018-04-09T07:52:29.875Z,13.90
2018-04-09T07:53:30.045Z,12.50
2018-04-09T07:54:30.212Z,12.50
2018-04-09T07:55:30.384Z,12.80
2018-04-09T07:56:30.555Z,13.40
2018-04-09T07:57:30.724Z,14.10
2018-04-09T07:58:30.894Z,12.40
2018-04-09T07:59:38.742Z,13.50
2018-04-09T08:00:31.277Z,14.90
2018-04-09T08:01:31.440Z,14.70
2018-04-09T08:02:31.613Z,29.20
2018-04-09T08:03:31.814Z,15.50
2018-04-09T08:04:31.980Z,14.60
2018-04-09T08:05:32.259Z,12.90
2018-04-09T08:06:32.341Z,14.60
2018-04-09T08:07:32.526Z,14.50
2018-04-09T08:08:32.736Z,13.20
2018-04-09T08:09:32.926Z,15.50
2018-04-09T08:10:33.040Z,12.80
2018-04-09T08:11:33.216Z,14.70
2018-04-09T08:12:33.413Z,13.50
2018-04-09T08:13:33.604Z,12.20
2018-04-09T08:16:15.996Z,13.90
2018-04-09T08:17:15.996Z,13.60
2018-04-09T08:18:16.192Z,13.10
2018-04-09T08:19:16.361Z,13.20
2018-04-09T08:20:16.524Z,14.50
2018-04-09T08:21:16.693Z,14.50
2018-04-09T08:22:16.862Z,12.70
2018-04-09T08:23:17.060Z,14.40
2018-04-09T08:24:17.237Z,14.10
2018-04-09T08:25:24.879Z,12.80
2018-04-09T08:26:17.554Z,13.20
2018-04-09T08:27:17.729Z,12.90
2018-04-09T08:28:17.907Z,14.10
2018-04-09T08:29:18.088Z,13.50
2018-04-09T08:30:18.237Z,15.60
2018-04-09T08:31:18.407Z,14.60
2018-04-09T08:32:18.578Z,17.40
2018-04-09T08:33:19.414Z,13.30
2018-04-09T08:34:18.961Z,14.30
2018-04-09T08:35:19.131Z,15.40
2018-04-09T08:38:01.402Z,14.70
2018-04-09T08:39:02.438Z,16.70
2018-04-09T08:40:01.727Z,15.80
2018-04-09T08:41:01.894Z,14.40
2018-04-09T08:42:02.937Z,12.30
2018-04-09T08:43:02.235Z,16.90
2018-04-09T08:44:02.399Z,14.80
2018-04-09T08:45:02.569Z,13.10
2018-04-09T08:46:02.782Z,14.20
2018-04-09T08:47:02.929Z,13.30
2018-04-09T08:48:03.095Z,14.00
2018-04-09T08:49:03.280Z,15.60
2018-04-09T08:50:04.935Z,13.60
2018-04-09T08:51:03.592Z,14.40
2018-04-09T08:52:03.768Z,16.20
2018-04-09T08:54:46.343Z,14.50
2018-04-09T08:55:46.513Z,14.80
2018-04-09T08:56:46.680Z,15.70
2018-04-09T08:57:48.565Z,14.10
2018-04-09T08:58:54.935Z,13.90
2018-04-09T08:59:47.112Z,13.10
2018-04-09T09:00:47.283Z,15.10
2018-04-09T09:01:47.449Z,15.70
2018-04-09T09:02:47.612Z,12.80
2018-04-09T09:03:47.800Z,14.80
2018-04-09T09:04:47.974Z,14.00
2018-04-09T09:05:48.137Z,13.90
2018-04-09T09:06:48.320Z,12.10
2018-04-09T09:07:49.101Z,13.50
2018-04-09T09:08:48.636Z,23.80
2018-04-09T09:11:21.236Z,18.60
2018-04-09T09:12:21.421Z,14.00
2018-04-09T09:13:21.588Z,15.90
2018-04-09T09:14:21.760Z,15.20
2018-04-09T09:15:21.933Z,14.40
2018-04-09T09:16:22.102Z,14.60
2018-04-09T09:17:22.286Z,14.70
2018-04-09T09:18:22.455Z,13.30
2018-04-09T09:19:22.614Z,13.10
2018-04-09T09:20:22.799Z,14.70
2018-04-09T09:21:22.967Z,14.00
2018-04-09T09:22:23.149Z,14.30
2018-04-09T09:23:23.321Z,14.10
2018-04-09T09:24:23.497Z,14.70
2018-04-09T09:25:23.717Z,13.60
2018-04-09T09:27:56.325Z,13.40
2018-04-09T09:28:56.499Z,14.30
2018-04-09T09:29:56.670Z,14.30
2018-04-09T09:30:56.830Z,14.30
2018-04-09T09:31:56.989Z,14.10
2018-04-09T09:32:57.152Z,14.90
2018-04-09T09:33:57.359Z,15.20
2018-04-09T09:34:57.506Z,14.10
2018-04-09T09:35:57.675Z,14.60
2018-04-09T09:36:57.843Z,15.50
2018-04-09T09:38:06.000Z,15.70
2018-04-09T09:38:58.159Z,14.80
2018-04-09T09:40:00.053Z,13.80
2018-04-09T09:40:59.056Z,13.50
2018-04-09T09:41:58.607Z,13.30
2018-04-09T09:42:58.781Z,13.70
2018-04-09T09:43:58.951Z,13.00
2018-04-09T09:45:00.058Z,12.30
2018-04-09T09:45:59.230Z,16.20
2018-04-09T09:46:59.403Z,12.30
2018-04-09T09:47:59.585Z,12.60
2018-04-09T09:52:40.534Z,13.40
2018-04-09T09:53:40.331Z,11.80
2018-04-09T09:54:40.496Z,11.50
2018-04-09T09:55:47.882Z,11.60
2018-04-09T09:56:40.882Z,11.90
2018-04-09T09:57:41.052Z,10.30
2018-04-09T09:58:42.024Z,11.60
2018-04-09T09:59:41.452Z,10.40
2018-04-09T10:00:49.427Z,10.70
2018-04-09T10:01:41.862Z,10.70
2018-04-09T10:02:42.012Z,10.10
2018-04-09T10:03:42.237Z,12.10
2018-04-09T10:04:42.348Z,10.70
2018-04-09T10:05:42.500Z,10.50
2018-04-09T10:06:42.667Z,10.30
2018-04-09T10:07:42.864Z,11.00
2018-04-09T10:08:43.010Z,10.70
2018-04-09T10:09:44.048Z,10.20
2018-04-09T10:10:43.350Z,9.60
2018-04-09T10:11:43.524Z,9.40
2018-04-09T10:12:43.692Z,10.80
2018-04-09T10:13:43.862Z,9.60
2018-04-09T10:14:44.032Z,10.20
2018-04-09T10:15:44.203Z,9.80
2018-04-09T10:18:16.785Z,9.10
2018-04-09T10:19:16.961Z,10.30
2018-04-09T10:20:17.222Z,11.00
2018-04-09T10:21:17.314Z,10.70
2018-04-09T10:22:17.496Z,9.70
2018-04-09T10:23:17.690Z,10.90
2018-04-09T10:24:17.864Z,11.20
2018-04-09T10:25:18.044Z,11.70
2018-04-09T10:26:18.206Z,11.30
2018-04-09T10:27:18.369Z,11.70
2018-04-09T10:31:33.011Z,12.20
2018-04-09T10:32:33.771Z,14.50
2018-04-09T10:33:33.301Z,11.70
2018-04-09T10:34:33.576Z,11.40
2018-04-09T10:35:41.613Z,11.30
2018-04-09T10:36:33.775Z,11.40
2018-04-09T10:37:33.956Z,11.90
2018-04-09T10:38:34.158Z,15.50
2018-04-09T10:39:34.310Z,11.80
2018-04-09T10:40:34.479Z,11.00
2018-04-09T10:41:34.650Z,11.10
2018-04-09T10:42:34.813Z,10.50
2018-04-09T10:43:34.981Z,11.20
2018-04-09T10:44:35.150Z,11.50
2018-04-09T10:45:36.269Z,12.50
2018-04-09T10:48:18.819Z,12.10
2018-04-09T10:49:18.990Z,12.90
2018-04-09T10:50:19.161Z,11.60
2018-04-09T10:51:19.332Z,11.30
2018-04-09T10:52:19.503Z,11.10
2018-04-09T10:53:19.677Z,10.40
2018-04-09T10:54:19.846Z,10.60
2018-04-09T10:55:20.020Z,11.90
2018-04-09T10:56:20.201Z,10.90
2018-04-09T10:57:22.077Z,10.60
2018-04-09T10:58:28.197Z,10.70
2018-04-09T10:59:20.707Z,9.90
2018-04-09T11:00:22.607Z,10.10
2018-04-09T11:01:21.016Z,12.20
2018-04-09T11:02:21.206Z,10.70
2018-04-09T11:03:21.362Z,11.00
2018-04-09T11:04:21.532Z,12.10
2018-04-09T11:05:32.216Z,11.70
2018-04-09T11:06:21.825Z,10.40
2018-04-09T11:07:22.015Z,12.60
2018-04-09T11:09:53.832Z,13.30
2018-04-09T11:10:53.994Z,10.70
2018-04-09T11:11:54.207Z,14.10
2018-04-09T11:12:54.380Z,10.20
2018-04-09T11:13:54.558Z,9.80
2018-04-09T11:14:54.728Z,11.30
2018-04-09T11:15:54.879Z,10.40
2018-04-09T11:16:55.055Z,9.30
2018-04-09T11:17:55.227Z,17.80
2018-04-09T11:18:55.403Z,10.80
2018-04-09T11:21:28.163Z,10.40
2018-04-09T11:22:28.329Z,13.30
2018-04-09T11:23:28.578Z,9.60
2018-04-09T11:24:29.592Z,12.10
2018-04-09T11:25:28.888Z,9.30
2018-04-09T11:26:36.463Z,10.40
2018-04-09T11:27:29.192Z,10.00
2018-04-09T11:28:29.318Z,10.70
2018-04-09T11:29:29.483Z,11.20
2018-04-09T11:30:30.060Z,11.10
2018-04-09T11:31:29.885Z,11.90
2018-04-09T11:32:30.722Z,10.00
2018-04-09T11:33:30.267Z,10.50
2018-04-09T11:34:30.440Z,9.80
2018-04-09T11:35:30.650Z,11.20
2018-04-09T11:36:31.657Z,12.40
2018-04-09T11:37:31.006Z,10.30
2018-04-09T11:38:31.181Z,12.60
2018-04-09T11:39:31.365Z,9.60
2018-04-09T11:40:31.522Z,9.90
2018-04-09T11:43:04.117Z,10.80
2018-04-09T11:44:04.302Z,11.80
2018-04-09T11:45:04.456Z,11.80
2018-04-09T11:46:04.623Z,12.40
2018-04-09T11:47:04.798Z,10.90
2018-04-09T11:48:04.969Z,9.70
2018-04-09T11:49:05.138Z,10.90
2018-04-09T11:50:17.058Z,11.80
2018-04-09T11:51:05.467Z,10.90
2018-04-09T11:52:05.751Z,10.20
2018-04-09T11:53:05.803Z,11.50
2018-04-09T11:54:05.964Z,12.10
2018-04-09T11:55:08.333Z,10.70
2018-04-09T11:56:07.884Z,9.50
2018-04-09T11:57:06.453Z,10.40
2018-04-09T11:58:06.693Z,11.60
2018-04-09T11:59:10.569Z,9.20
2018-04-09T12:00:09.462Z,9.50
2018-04-09T12:01:07.105Z,9.60
2018-04-09T12:02:08.906Z,8.00
2018-04-09T12:03:07.469Z,10.50
2018-04-09T12:04:15.277Z,7.30
2018-04-09T12:05:07.818Z,8.80
2018-04-09T12:06:15.176Z,8.10
2018-04-09T12:07:08.223Z,8.80
2018-04-09T12:08:08.929Z,7.80
2018-04-09T12:09:08.596Z,7.30
2018-04-09T12:10:15.935Z,8.30
2018-04-09T12:11:08.975Z,9.60
2018-04-09T12:12:09.144Z,9.10
2018-04-09T12:13:09.318Z,8.00
2018-04-09T12:14:09.492Z,30.80
2018-04-09T12:15:09.662Z,23.10
2018-04-09T12:16:09.827Z,26.60
2018-04-09T12:17:10.012Z,13.70
2018-04-09T12:18:10.186Z,11.60
2018-04-09T12:19:10.357Z,27.70
2018-04-09T12:20:10.530Z,9.70
2018-04-09T12:22:53.806Z,7.20
2018-04-09T12:23:54.317Z,9.10
2018-04-09T12:24:54.139Z,8.00
2018-04-09T12:25:54.309Z,9.30
2018-04-09T12:26:54.487Z,14.10
2018-04-09T12:29:26.260Z,7.00
2018-04-09T12:30:26.431Z,10.60
2018-04-09T12:31:26.608Z,9.40
2018-04-09T12:32:26.777Z,8.30
2018-04-09T12:33:26.946Z,7.00
2018-04-09T12:34:27.116Z,8.30
2018-04-09T12:35:27.288Z,6.30
2018-04-09T12:36:34.920Z,7.70
2018-04-09T12:37:29.310Z,6.70
2018-04-09T12:38:27.731Z,7.10
2018-04-09T12:39:27.899Z,8.50
2018-04-09T12:40:28.063Z,7.50
2018-04-09T12:41:30.761Z,7.90
2018-04-09T12:42:28.373Z,7.40
2018-04-09T12:43:28.542Z,7.60
2018-04-09T12:44:28.719Z,7.30
2018-04-09T12:45:28.893Z,7.20
2018-04-09T12:46:29.067Z,8.50
2018-04-09T12:49:01.388Z,7.50
2018-04-09T12:50:01.544Z,8.50
2018-04-09T12:51:01.719Z,8.30
2018-04-09T12:52:01.883Z,7.20
2018-04-09T12:53:02.051Z,8.30
2018-04-09T12:54:02.259Z,8.90
2018-04-09T12:55:02.386Z,6.80
2018-04-09T12:56:02.560Z,9.10
2018-04-09T12:57:02.759Z,8.90
2018-04-09T12:58:02.924Z,8.20
2018-04-09T12:59:04.861Z,8.00
2018-04-09T13:00:11.420Z,8.40
2018-04-09T13:01:24.478Z,10.90
2018-04-09T13:02:03.627Z,9.30
2018-04-09T13:03:03.798Z,8.60
2018-04-09T13:04:03.972Z,8.20
2018-04-09T13:05:05.891Z,6.50
2018-04-09T13:06:04.309Z,8.50
2018-04-09T13:07:04.471Z,8.00
2018-04-09T13:08:04.639Z,8.60
2018-04-09T13:09:04.817Z,9.00
2018-04-09T13:10:05.898Z,7.50
2018-04-09T13:11:05.196Z,7.70
2018-04-09T13:12:05.363Z,7.30
2018-04-09T13:13:05.622Z,8.30
2018-04-09T13:14:13.387Z,6.40
2018-04-09T13:15:05.972Z,8.70
2018-04-09T13:16:06.149Z,9.40
2018-04-09T13:17:06.301Z,8.60
2018-04-09T13:18:06.511Z,7.10
2018-04-09T13:19:06.662Z,10.70
2018-04-09T13:20:06.824Z,9.00
2018-04-09T13:21:08.037Z,8.00
2018-04-09T13:22:14.626Z,8.80
2018-04-09T13:23:07.289Z,8.90
2018-04-09T13:24:14.618Z,9.70
2018-04-09T13:25:07.674Z,8.00
2018-04-09T13:26:07.836Z,7.60
2018-04-09T13:27:08.002Z,11.50
2018-04-09T13:28:08.172Z,10.10
2018-04-09T13:29:08.347Z,9.00
2018-04-09T13:30:08.508Z,9.70
2018-04-09T13:31:08.694Z,10.80
2018-04-09T13:32:08.857Z,9.40
2018-04-09T13:33:09.025Z,7.60
2018-04-09T13:34:10.982Z,9.90
2018-04-09T13:35:09.408Z,8.10
2018-04-09T13:36:10.087Z,9.20
2018-04-09T13:37:09.684Z,9.10
2018-04-09T13:38:09.899Z,9.40
2018-04-09T13:39:17.968Z,9.80
2018-04-09T13:40:10.132Z,9.50
2018-04-09T13:41:10.302Z,7.90
2018-04-09T13:42:10.491Z,9.80
2018-04-09T13:43:10.656Z,11.00
2018-04-09T13:44:10.833Z,9.70
2018-04-09T13:45:18.228Z,8.00
2018-04-09T13:46:11.156Z,9.60
2018-04-09T13:47:11.339Z,11.10
2018-04-09T13:48:11.489Z,10.10
2018-04-09T13:49:11.681Z,8.40
2018-04-09T13:50:11.847Z,9.60
2018-04-09T13:51:12.013Z,10.90
2018-04-09T13:52:12.186Z,10.70
2018-04-09T13:53:12.344Z,13.00
2018-04-09T13:54:12.513Z,8.90
2018-04-09T13:55:13.538Z,7.80
2018-04-09T13:56:12.833Z,8.90
2018-04-09T13:57:13.108Z,8.30
2018-04-09T13:58:13.187Z,11.40
2018-04-09T13:59:21.323Z,10.90
2018-04-09T14:00:13.486Z,11.90
2018-04-09T14:01:13.651Z,12.10
2018-04-09T14:02:13.822Z,12.30
2018-04-09T14:03:13.987Z,17.30
2018-04-09T14:04:14.169Z,11.10
2018-04-09T14:05:14.328Z,11.30
2018-04-09T14:06:14.503Z,16.60
2018-04-09T14:07:14.673Z,14.40
2018-04-09T14:08:14.845Z,19.90
2018-04-09T14:09:15.027Z,11.00
2018-04-09T14:10:15.189Z,10.70
2018-04-09T14:11:15.355Z,16.60
2018-04-09T14:12:15.570Z,11.10
2018-04-09T14:13:23.661Z,12.70
2018-04-09T14:14:15.827Z,11.10
2018-04-09T14:15:16.347Z,14.00
2018-04-09T14:16:16.131Z,9.70
2018-04-09T14:17:16.277Z,11.20
2018-04-09T14:18:16.457Z,9.90
2018-04-09T14:19:16.727Z,8.20
2018-04-09T14:20:25.129Z,10.10
2018-04-09T14:21:16.975Z,9.60
2018-04-09T14:22:17.069Z,11.90
2018-04-09T14:23:17.237Z,16.90
2018-04-09T14:24:17.427Z,11.30
2018-04-09T14:25:17.637Z,8.80
2018-04-09T14:26:17.804Z,9.90
2018-04-09T14:27:17.980Z,9.00
2018-04-09T14:28:18.149Z,10.50
2018-04-09T14:29:18.329Z,11.90
2018-04-09T14:30:18.504Z,10.60
2018-04-09T14:31:18.674Z,10.50
2018-04-09T14:32:18.849Z,10.80
2018-04-09T14:33:19.020Z,10.30